Archival Weather

Half Moon Bay

Half Moon Bay, California (KHAF)

Report from: Wednesday, December 6, 2023 3:35 AM PST
Current time: Saturday, February 24, 2024 7:51 AM PST

Current weather – Weather history – Daily summaries
Weather forecast

Present weatherFog
Temperature11.0°C (51.8°F)
Dew point11.0°C (51.8°F)
Winds 5 kts (2.6 m/s, 5.8 mph) East-Southeast (120°)
Visibility1320 ft. (402.3 m)
Clouds Ceiling: Overcast 200 ft. (61 m)
Altimeter30.04 in.Hg (1017 mB)
Relative humidity100 %
Density altitude-429 ft. (-131 m)
Remarks Fully automated report
Automated weather observing station with precipitation discriminator
Flight conditions Low Instrument Meteorological Conditions
Raw dataKHAF 061135Z AUTO 12005KT 1/4SM FG OVC002 11/11 A3004 RMK AO2
An error has occurred. This application may no longer respond until reloaded. Reload 🗙